createdAt,value
2023-01-23T00:04:52.165Z,11.05
2023-01-23T00:09:54.323Z,11.45
2023-01-23T00:14:56.530Z,10.32
2023-01-23T00:19:59.602Z,10.80
2023-01-23T00:25:01.784Z,11.30
2023-01-23T00:30:04.850Z,11.27
2023-01-23T00:35:07.486Z,10.48
2023-01-23T00:40:10.314Z,9.93
2023-01-23T00:45:13.594Z,10.02
2023-01-23T00:50:15.906Z,9.38
2023-01-23T00:55:18.084Z,10.50
2023-01-23T01:00:20.615Z,9.60
2023-01-23T01:05:23.143Z,9.23
2023-01-23T01:10:29.441Z,9.38
2023-01-23T01:15:31.853Z,10.88
2023-01-23T01:20:33.935Z,11.27
2023-01-23T01:25:38.776Z,11.43
2023-01-23T01:30:41.327Z,10.10
2023-01-23T01:35:43.867Z,10.15
2023-01-23T01:40:46.077Z,9.80
2023-01-23T01:46:14.680Z,9.05
2023-01-23T01:51:19.763Z,8.55
2023-01-23T01:56:22.240Z,9.73
2023-01-23T02:01:24.789Z,9.73
2023-01-23T02:06:27.330Z,9.15
2023-01-23T02:11:30.136Z,8.50
2023-01-23T02:16:41.047Z,8.48
2023-01-23T02:21:44.836Z,8.95
2023-01-23T02:26:47.259Z,9.02
2023-01-23T02:31:52.933Z,8.50
2023-01-23T02:36:56.307Z,8.60
2023-01-23T02:42:00.725Z,9.32
2023-01-23T02:52:32.070Z,9.52
2023-01-23T02:57:34.894Z,9.90
2023-01-23T03:02:38.358Z,10.07
2023-01-23T03:07:40.496Z,9.93
2023-01-23T03:12:43.578Z,9.52
2023-01-23T03:17:46.598Z,9.82
2023-01-23T03:22:49.152Z,8.88
2023-01-23T03:27:51.226Z,9.02
2023-01-23T03:32:53.463Z,10.07
2023-01-23T03:37:55.659Z,9.50
2023-01-23T03:42:58.075Z,9.15
2023-01-23T03:48:03.328Z,8.88
2023-01-23T03:53:05.935Z,9.60
2023-01-23T03:58:08.050Z,10.43
2023-01-23T04:03:11.541Z,10.07
2023-01-23T04:08:14.581Z,9.98
2023-01-23T04:13:17.253Z,9.32
2023-01-23T04:18:19.827Z,9.45
2023-01-23T04:23:22.455Z,10.57
2023-01-23T04:28:24.703Z,9.75
2023-01-23T04:33:26.963Z,9.57
2023-01-23T04:38:30.493Z,10.23
2023-01-23T04:43:40.031Z,11.52
2023-01-23T04:53:52.079Z,9.35
2023-01-23T04:58:54.712Z,8.95
2023-01-23T05:03:58.812Z,8.85
2023-01-23T05:09:00.973Z,9.63
2023-01-23T05:14:14.056Z,9.05
2023-01-23T05:19:17.587Z,9.25
2023-01-23T05:24:20.206Z,8.70
2023-01-23T05:29:23.379Z,8.77
2023-01-23T05:34:35.246Z,8.63
2023-01-23T05:39:39.174Z,9.80
2023-01-23T05:44:41.266Z,9.27
2023-01-23T05:49:50.091Z,8.77
2023-01-23T05:54:52.371Z,8.25
2023-01-23T05:59:54.646Z,9.07
2023-01-23T06:05:16.872Z,8.43
2023-01-23T06:10:33.274Z,8.43
2023-01-23T06:15:36.797Z,12.40
2023-01-23T06:20:43.905Z,18.55
2023-01-23T06:25:46.112Z,19.20
2023-01-23T06:30:48.356Z,13.57
2023-01-23T06:36:01.403Z,10.35
2023-01-23T06:41:03.511Z,8.85
2023-01-23T06:46:11.802Z,9.77
2023-01-23T06:51:14.159Z,10.38
2023-01-23T06:56:19.165Z,9.82
2023-01-23T07:01:22.909Z,9.68
2023-01-23T07:06:43.784Z,9.65
2023-01-23T07:11:48.932Z,10.52
2023-01-23T07:16:51.355Z,10.27
2023-01-23T07:21:53.507Z,9.60
2023-01-23T07:26:55.554Z,8.88
2023-01-23T07:32:00.059Z,9.35
2023-01-23T07:37:02.190Z,7.17
2023-01-23T07:42:04.281Z,8.90
2023-01-23T07:47:06.569Z,8.73
2023-01-23T07:52:08.728Z,9.95
2023-01-23T07:57:10.782Z,9.98
2023-01-23T08:02:12.803Z,10.68
2023-01-23T08:07:14.998Z,10.90
2023-01-23T08:12:17.048Z,10.70
2023-01-23T08:17:19.070Z,9.85
2023-01-23T08:22:21.097Z,10.50
2023-01-23T08:27:23.217Z,9.95
2023-01-23T08:32:25.266Z,10.48
2023-01-23T08:37:27.447Z,10.77
2023-01-23T08:42:29.582Z,11.75
2023-01-23T08:47:36.577Z,11.68
2023-01-23T08:52:39.011Z,11.57
2023-01-23T08:57:41.051Z,10.88
2023-01-23T09:02:43.097Z,10.05
2023-01-23T09:07:45.208Z,10.13
2023-01-23T09:12:47.208Z,9.75
2023-01-23T09:17:49.955Z,10.75
2023-01-23T09:22:52.608Z,11.13
2023-01-23T09:27:54.635Z,11.95
2023-01-23T09:32:56.812Z,12.50
2023-01-23T09:38:01.979Z,11.95
2023-01-23T09:43:23.150Z,11.95
2023-01-23T09:48:47.778Z,11.40
2023-01-23T09:53:50.034Z,10.18
2023-01-23T09:59:14.415Z,9.23
2023-01-23T10:04:19.461Z,10.10
2023-01-23T10:09:49.170Z,9.05
2023-01-23T10:14:57.456Z,9.15
2023-01-23T10:20:16.594Z,8.88
2023-01-23T10:25:23.215Z,9.05
2023-01-23T10:30:38.611Z,8.82
2023-01-23T10:35:50.715Z,8.52
2023-01-23T10:41:11.683Z,9.55
2023-01-23T10:46:17.445Z,10.73
2023-01-23T10:51:35.606Z,10.10
2023-01-23T10:56:59.537Z,9.63
2023-01-23T11:02:16.725Z,9.65
2023-01-23T11:07:30.884Z,12.27
2023-01-23T11:12:35.308Z,11.88
2023-01-23T11:17:39.027Z,14.00
2023-01-23T11:22:42.265Z,12.32
2023-01-23T11:28:00.447Z,11.52
2023-01-23T11:33:06.285Z,13.15
2023-01-23T11:38:13.038Z,13.82
2023-01-23T11:43:16.430Z,11.95
2023-01-23T11:48:30.277Z,12.18
2023-01-23T11:53:56.704Z,10.65
2023-01-23T11:59:20.152Z,11.80
2023-01-23T12:04:46.860Z,8.80
2023-01-23T12:10:00.832Z,7.82
2023-01-23T12:15:30.644Z,7.25
2023-01-23T12:20:44.848Z,5.90
2023-01-23T12:26:15.257Z,6.20
2023-01-23T12:31:26.254Z,3.80
2023-01-23T12:37:07.217Z,3.15
2023-01-23T12:42:25.209Z,3.47
2023-01-23T12:47:50.159Z,2.53
2023-01-23T12:53:12.471Z,2.70
2023-01-23T12:58:19.091Z,2.70
2023-01-23T13:03:46.596Z,2.92
2023-01-23T13:09:19.703Z,2.00
2023-01-23T13:14:47.490Z,1.35
2023-01-23T13:20:12.308Z,1.65
2023-01-23T13:25:18.957Z,1.75
2023-01-23T13:30:26.699Z,1.67
2023-01-23T13:35:44.823Z,2.45
2023-01-23T13:41:05.007Z,1.65
2023-01-23T13:46:22.338Z,1.40
2023-01-23T14:24:03.805Z,2.20
2023-01-23T14:29:20.631Z,2.30
2023-01-23T14:34:24.443Z,2.20
2023-01-23T14:39:32.077Z,1.90
2023-01-23T14:44:47.016Z,2.30
2023-01-23T14:49:49.416Z,2.35
2023-01-23T14:54:54.386Z,2.90
2023-01-23T15:05:16.578Z,2.70
2023-01-23T15:10:40.047Z,3.40
2023-01-23T15:15:48.718Z,2.97
2023-01-23T15:20:56.941Z,4.03
2023-01-23T15:26:17.735Z,3.03
2023-01-23T15:31:42.334Z,3.17
2023-01-23T15:37:06.613Z,3.10
2023-01-23T15:42:14.694Z,4.30
2023-01-23T15:47:16.948Z,3.15
2023-01-23T15:52:22.817Z,3.60
2023-01-23T16:02:32.309Z,3.72
2023-01-23T16:07:39.391Z,3.80
2023-01-23T16:17:43.868Z,3.97
2023-01-23T16:22:51.956Z,4.10
2023-01-23T16:27:54.277Z,4.10
2023-01-23T16:32:57.271Z,4.20
2023-01-23T16:38:00.220Z,4.70
2023-01-23T16:43:03.142Z,4.43
2023-01-23T16:48:06.398Z,5.30
2023-01-23T16:53:25.014Z,4.40
2023-01-23T16:58:31.241Z,3.38
2023-01-23T17:03:36.142Z,3.30
2023-01-23T17:08:38.884Z,4.27
2023-01-23T17:13:40.919Z,6.25
2023-01-23T17:18:43.050Z,7.50
2023-01-23T17:23:45.181Z,9.68
2023-01-23T17:28:47.281Z,9.13
2023-01-23T17:33:50.154Z,11.23
2023-01-23T17:38:55.423Z,9.48
2023-01-23T17:43:57.631Z,7.45
2023-01-23T17:49:00.369Z,7.32
2023-01-23T17:54:02.481Z,9.13
2023-01-23T17:59:04.529Z,9.38
2023-01-23T18:04:18.500Z,10.10
2023-01-23T18:09:21.912Z,11.00
2023-01-23T18:15:01.869Z,11.25
2023-01-23T18:20:14.877Z,11.43
2023-01-23T18:25:19.102Z,11.73
2023-01-23T18:30:30.674Z,13.80
2023-01-23T18:35:53.673Z,16.42
2023-01-23T18:41:11.271Z,18.30
2023-01-23T18:46:20.800Z,18.10
2023-01-23T18:51:35.044Z,19.10
2023-01-23T18:56:53.051Z,17.75
2023-01-23T19:02:01.938Z,18.73
2023-01-23T19:07:05.764Z,18.45
2023-01-23T19:12:25.377Z,18.67
2023-01-23T19:17:49.033Z,18.80
2023-01-23T19:23:01.718Z,20.95
2023-01-23T19:28:04.143Z,19.27
2023-01-23T19:33:06.556Z,17.98
2023-01-23T19:38:08.677Z,17.00
2023-01-23T19:43:16.056Z,17.73
2023-01-23T19:48:18.223Z,23.02
2023-01-23T19:53:20.583Z,36.67
2023-01-23T19:58:22.680Z,26.30
2023-01-23T20:03:24.798Z,22.10
2023-01-23T20:08:27.014Z,20.38
2023-01-23T20:13:29.157Z,22.65
2023-01-23T20:18:31.205Z,21.92
2023-01-23T20:23:33.352Z,21.60
2023-01-23T20:28:36.149Z,20.27
2023-01-23T20:33:40.301Z,18.58
2023-01-23T20:38:43.942Z,18.73
2023-01-23T20:43:46.872Z,19.20
2023-01-23T20:48:49.064Z,33.20
2023-01-23T20:53:51.181Z,32.28
2023-01-23T20:59:13.243Z,30.80
2023-01-23T21:04:15.295Z,23.05
2023-01-23T21:09:17.967Z,23.30
2023-01-23T21:14:21.531Z,21.33
2023-01-23T21:19:24.030Z,19.50
2023-01-23T21:24:27.563Z,22.42
2023-01-23T21:29:30.532Z,21.83
2023-01-23T21:34:33.315Z,18.00
2023-01-23T21:39:35.490Z,18.85
2023-01-23T21:44:37.543Z,19.98
2023-01-23T21:49:39.599Z,21.17
2023-01-23T21:54:42.738Z,22.90
2023-01-23T22:00:04.883Z,21.45
2023-01-23T22:05:14.368Z,18.90
2023-01-23T22:10:16.734Z,18.55
2023-01-23T22:15:19.123Z,18.95
2023-01-23T22:20:21.686Z,16.52
2023-01-23T22:25:23.829Z,18.25
2023-01-23T22:30:25.987Z,16.85
2023-01-23T22:35:28.400Z,17.27
2023-01-23T22:40:30.510Z,15.05
2023-01-23T22:45:32.816Z,15.30
2023-01-23T22:50:34.862Z,15.10
2023-01-23T22:55:38.431Z,13.55
2023-01-23T23:00:42.710Z,14.10
2023-01-23T23:05:44.865Z,14.77
2023-01-23T23:10:47.022Z,13.88
2023-01-23T23:15:49.052Z,14.57
2023-01-23T23:20:51.235Z,14.23
2023-01-23T23:25:54.837Z,13.65
2023-01-23T23:30:56.947Z,12.07
2023-01-23T23:35:59.134Z,11.93
2023-01-23T23:41:06.888Z,11.15
2023-01-23T23:46:10.697Z,9.60
2023-01-23T23:51:15.205Z,10.25
2023-01-23T23:56:21.484Z,9.77
